sensor_id;sensor_type;location;lat;lon;timestamp;pressure;altitude;pressure_sealevel;temperature;humidity
32747;BME280;19118;50.860;13.662;2023-09-19T00:01:51;96235.16;;;17.79;100.00
32747;BME280;19118;50.860;13.662;2023-09-19T00:06:52;96237.50;;;17.70;100.00
32747;BME280;19118;50.860;13.662;2023-09-19T00:11:54;96235.94;;;17.80;100.00
32747;BME280;19118;50.860;13.662;2023-09-19T00:16:54;96226.34;;;17.89;100.00
32747;BME280;19118;50.860;13.662;2023-09-19T00:21:55;96220.44;;;17.82;100.00
32747;BME280;19118;50.860;13.662;2023-09-19T00:26:55;96227.41;;;17.88;100.00
32747;BME280;19118;50.860;13.662;2023-09-19T00:31:56;96224.19;;;17.81;100.00
32747;BME280;19118;50.860;13.662;2023-09-19T00:36:59;96218.81;;;17.75;100.00
32747;BME280;19118;50.860;13.662;2023-09-19T00:41:59;96216.66;;;17.78;100.00
32747;BME280;19118;50.860;13.662;2023-09-19T00:47:05;96224.72;;;17.83;100.00
32747;BME280;19118;50.860;13.662;2023-09-19T00:52:06;96217.22;;;17.80;100.00
32747;BME280;19118;50.860;13.662;2023-09-19T00:57:07;96211.03;;;17.74;100.00
32747;BME280;19118;50.860;13.662;2023-09-19T01:02:08;96226.81;;;17.75;100.00
32747;BME280;19118;50.860;13.662;2023-09-19T01:07:08;96227.31;;;17.67;100.00
32747;BME280;19118;50.860;13.662;2023-09-19T01:12:09;96229.38;;;17.55;100.00
32747;BME280;19118;50.860;13.662;2023-09-19T01:17:20;96231.28;;;17.60;100.00
32747;BME280;19118;50.860;13.662;2023-09-19T01:22:33;96226.25;;;17.68;100.00
32747;BME280;19118;50.860;13.662;2023-09-19T01:33:08;96238.63;;;17.80;100.00
32747;BME280;19118;50.860;13.662;2023-09-19T01:38:08;96242.91;;;17.81;100.00
32747;BME280;19118;50.860;13.662;2023-09-19T01:43:19;96231.69;;;17.84;100.00
32747;BME280;19118;50.860;13.662;2023-09-19T01:53:55;96237.06;;;17.99;100.00
32747;BME280;19118;50.860;13.662;2023-09-19T01:59:10;96237.88;;;17.94;100.00
32747;BME280;19118;50.860;13.662;2023-09-19T02:04:13;96245.06;;;17.89;100.00
32747;BME280;19118;50.860;13.662;2023-09-19T02:09:14;96241.31;;;17.80;100.00
32747;BME280;19118;50.860;13.662;2023-09-19T02:14:15;96252.78;;;17.75;100.00
32747;BME280;19118;50.860;13.662;2023-09-19T02:19:16;96270.16;;;17.72;100.00
32747;BME280;19118;50.860;13.662;2023-09-19T02:24:17;96255.66;;;17.68;100.00
32747;BME280;19118;50.860;13.662;2023-09-19T02:29:17;96259.97;;;17.69;100.00
32747;BME280;19118;50.860;13.662;2023-09-19T02:34:18;96264.44;;;17.64;100.00
32747;BME280;19118;50.860;13.662;2023-09-19T02:39:19;96269.00;;;17.63;100.00
32747;BME280;19118;50.860;13.662;2023-09-19T02:44:19;96274.88;;;17.65;100.00
32747;BME280;19118;50.860;13.662;2023-09-19T02:49:20;96272.78;;;17.67;100.00
32747;BME280;19118;50.860;13.662;2023-09-19T02:54:20;96272.00;;;17.72;100.00
32747;BME280;19118;50.860;13.662;2023-09-19T02:59:22;96284.59;;;17.71;100.00
32747;BME280;19118;50.860;13.662;2023-09-19T03:04:22;96278.09;;;17.62;100.00
32747;BME280;19118;50.860;13.662;2023-09-19T03:09:23;96284.50;;;17.61;100.00
32747;BME280;19118;50.860;13.662;2023-09-19T03:14:24;96288.78;;;17.62;100.00
32747;BME280;19118;50.860;13.662;2023-09-19T03:19:25;96286.03;;;17.47;100.00
32747;BME280;19118;50.860;13.662;2023-09-19T03:24:27;96287.16;;;17.56;100.00
32747;BME280;19118;50.860;13.662;2023-09-19T03:29:30;96293.50;;;17.45;100.00
32747;BME280;19118;50.860;13.662;2023-09-19T03:34:32;96296.19;;;17.50;100.00
32747;BME280;19118;50.860;13.662;2023-09-19T03:39:33;96295.94;;;17.52;100.00
32747;BME280;19118;50.860;13.662;2023-09-19T03:44:33;96298.06;;;17.50;100.00
32747;BME280;19118;50.860;13.662;2023-09-19T03:49:34;96304.63;;;17.32;100.00
32747;BME280;19118;50.860;13.662;2023-09-19T03:54:34;96305.81;;;17.51;100.00
32747;BME280;19118;50.860;13.662;2023-09-19T03:59:35;96311.84;;;17.31;100.00
32747;BME280;19118;50.860;13.662;2023-09-19T04:04:35;96320.66;;;17.32;100.00
32747;BME280;19118;50.860;13.662;2023-09-19T04:09:36;96336.22;;;17.35;100.00
32747;BME280;19118;50.860;13.662;2023-09-19T04:14:36;96315.31;;;17.32;100.00
32747;BME280;19118;50.860;13.662;2023-09-19T04:19:37;96303.81;;;17.31;100.00
32747;BME280;19118;50.860;13.662;2023-09-19T04:24:39;96319.84;;;17.31;100.00
32747;BME280;19118;50.860;13.662;2023-09-19T04:29:39;96328.38;;;17.23;100.00
32747;BME280;19118;50.860;13.662;2023-09-19T04:34:41;96331.44;;;17.42;100.00
32747;BME280;19118;50.860;13.662;2023-09-19T04:39:42;96338.75;;;17.20;100.00
32747;BME280;19118;50.860;13.662;2023-09-19T04:44:43;96346.22;;;17.17;100.00
32747;BME280;19118;50.860;13.662;2023-09-19T04:49:43;96355.34;;;17.22;100.00
32747;BME280;19118;50.860;13.662;2023-09-19T04:54:43;96371.28;;;17.11;100.00
32747;BME280;19118;50.860;13.662;2023-09-19T04:59:45;96381.50;;;17.20;100.00
32747;BME280;19118;50.860;13.662;2023-09-19T05:04:45;96377.72;;;17.15;100.00
32747;BME280;19118;50.860;13.662;2023-09-19T05:09:45;96376.66;;;17.16;100.00
32747;BME280;19118;50.860;13.662;2023-09-19T05:14:46;96392.09;;;17.09;100.00
32747;BME280;19118;50.860;13.662;2023-09-19T05:19:46;96398.00;;;17.11;100.00
32747;BME280;19118;50.860;13.662;2023-09-19T05:24:47;96392.69;;;17.16;100.00
32747;BME280;19118;50.860;13.662;2023-09-19T05:29:48;96404.28;;;17.27;100.00
32747;BME280;19118;50.860;13.662;2023-09-19T05:34:51;96404.09;;;17.34;100.00
32747;BME280;19118;50.860;13.662;2023-09-19T05:39:56;96405.69;;;17.35;100.00
32747;BME280;19118;50.860;13.662;2023-09-19T05:44:57;96430.81;;;17.34;100.00
32747;BME280;19118;50.860;13.662;2023-09-19T05:49:58;96415.50;;;17.56;100.00
32747;BME280;19118;50.860;13.662;2023-09-19T05:54:59;96423.19;;;17.80;100.00
32747;BME280;19118;50.860;13.662;2023-09-19T06:00:00;96428.59;;;17.90;100.00
32747;BME280;19118;50.860;13.662;2023-09-19T06:05:00;96417.50;;;18.13;100.00
32747;BME280;19118;50.860;13.662;2023-09-19T06:10:01;96413.16;;;18.07;100.00
32747;BME280;19118;50.860;13.662;2023-09-19T06:15:01;96426.47;;;18.44;100.00
32747;BME280;19118;50.860;13.662;2023-09-19T06:20:02;96427.53;;;18.43;100.00
32747;BME280;19118;50.860;13.662;2023-09-19T06:25:04;96436.34;;;18.39;100.00
32747;BME280;19118;50.860;13.662;2023-09-19T06:30:05;96450.59;;;18.49;100.00
32747;BME280;19118;50.860;13.662;2023-09-19T06:35:07;96452.22;;;18.50;100.00
32747;BME280;19118;50.860;13.662;2023-09-19T06:40:12;96459.47;;;18.60;100.00
32747;BME280;19118;50.860;13.662;2023-09-19T06:45:14;96463.84;;;18.71;100.00
32747;BME280;19118;50.860;13.662;2023-09-19T06:50:19;96461.25;;;19.02;100.00
32747;BME280;19118;50.860;13.662;2023-09-19T06:55:22;96473.63;;;19.23;100.00
32747;BME280;19118;50.860;13.662;2023-09-19T07:00:25;96484.94;;;19.51;100.00
32747;BME280;19118;50.860;13.662;2023-09-19T07:05:29;96483.91;;;19.87;100.00
32747;BME280;19118;50.860;13.662;2023-09-19T07:10:32;96494.91;;;20.16;100.00
32747;BME280;19118;50.860;13.662;2023-09-19T07:15:33;96509.63;;;20.34;100.00
32747;BME280;19118;50.860;13.662;2023-09-19T07:20:36;96521.22;;;19.73;100.00
32747;BME280;19118;50.860;13.662;2023-09-19T07:25:37;96519.06;;;19.96;100.00
32747;BME280;19118;50.860;13.662;2023-09-19T07:30:38;96532.78;;;19.94;100.00
32747;BME280;19118;50.860;13.662;2023-09-19T07:35:39;96535.16;;;20.01;100.00
32747;BME280;19118;50.860;13.662;2023-09-19T07:40:42;96549.91;;;20.34;100.00
32747;BME280;19118;50.860;13.662;2023-09-19T07:45:43;96545.94;;;21.16;100.00
32747;BME280;19118;50.860;13.662;2023-09-19T07:50:44;96548.09;;;21.19;100.00
32747;BME280;19118;50.860;13.662;2023-09-19T07:55:44;96552.63;;;21.29;100.00
32747;BME280;19118;50.860;13.662;2023-09-19T08:00:48;96557.25;;;21.18;100.00
32747;BME280;19118;50.860;13.662;2023-09-19T08:05:48;96569.41;;;21.01;100.00
32747;BME280;19118;50.860;13.662;2023-09-19T08:10:56;96574.47;;;21.12;100.00
32747;BME280;19118;50.860;13.662;2023-09-19T08:15:56;96563.09;;;21.36;100.00
32747;BME280;19118;50.860;13.662;2023-09-19T08:20:56;96570.53;;;21.54;100.00
32747;BME280;19118;50.860;13.662;2023-09-19T08:25:58;96558.75;;;21.84;100.00
32747;BME280;19118;50.860;13.662;2023-09-19T08:31:04;96570.66;;;21.78;100.00
32747;BME280;19118;50.860;13.662;2023-09-19T08:36:07;96563.41;;;21.78;100.00
32747;BME280;19118;50.860;13.662;2023-09-19T08:41:09;96571.56;;;22.02;100.00
32747;BME280;19118;50.860;13.662;2023-09-19T08:46:11;96568.56;;;21.10;100.00
32747;BME280;19118;50.860;13.662;2023-09-19T08:51:42;96572.88;;;21.11;100.00
32747;BME280;19118;50.860;13.662;2023-09-19T08:56:41;96574.84;;;21.50;100.00
32747;BME280;19118;50.860;13.662;2023-09-19T09:01:43;96580.84;;;21.37;100.00
32747;BME280;19118;50.860;13.662;2023-09-19T09:06:45;96579.69;;;21.53;100.00
32747;BME280;19118;50.860;13.662;2023-09-19T09:11:49;96578.88;;;21.97;100.00
32747;BME280;19118;50.860;13.662;2023-09-19T09:16:53;96590.03;;;21.26;100.00
32747;BME280;19118;50.860;13.662;2023-09-19T09:22:10;96591.78;;;20.86;100.00
32747;BME280;19118;50.860;13.662;2023-09-19T09:27:12;96600.25;;;21.29;100.00
32747;BME280;19118;50.860;13.662;2023-09-19T09:32:31;96612.09;;;22.26;100.00
32747;BME280;19118;50.860;13.662;2023-09-19T09:37:35;96595.91;;;22.89;100.00
32747;BME280;19118;50.860;13.662;2023-09-19T09:42:38;96595.94;;;23.56;92.47
32747;BME280;19118;50.860;13.662;2023-09-19T09:47:50;96593.63;;;23.87;88.51
32747;BME280;19118;50.860;13.662;2023-09-19T09:52:57;96601.31;;;24.50;76.16
32747;BME280;19118;50.860;13.662;2023-09-19T09:58:16;96601.94;;;24.09;82.28
32747;BME280;19118;50.860;13.662;2023-09-19T10:03:21;96608.41;;;23.04;81.94
32747;BME280;19118;50.860;13.662;2023-09-19T10:08:22;96616.09;;;21.85;89.06
32747;BME280;19118;50.860;13.662;2023-09-19T10:13:25;96608.47;;;21.58;92.16
32747;BME280;19118;50.860;13.662;2023-09-19T10:18:27;96590.25;;;21.84;91.42
32747;BME280;19118;50.860;13.662;2023-09-19T10:23:31;96613.16;;;22.25;91.45
32747;BME280;19118;50.860;13.662;2023-09-19T10:28:34;96611.72;;;21.55;91.59
32747;BME280;19118;50.860;13.662;2023-09-19T10:33:36;96616.31;;;21.49;91.19
32747;BME280;19118;50.860;13.662;2023-09-19T10:38:43;96621.91;;;22.12;89.63
32747;BME280;19118;50.860;13.662;2023-09-19T10:43:48;96620.28;;;22.45;81.72
32747;BME280;19118;50.860;13.662;2023-09-19T10:48:50;96630.13;;;22.60;80.52
32747;BME280;19118;50.860;13.662;2023-09-19T10:53:59;96621.38;;;23.50;78.34
32747;BME280;19118;50.860;13.662;2023-09-19T10:59:09;96619.38;;;23.37;72.09
32747;BME280;19118;50.860;13.662;2023-09-19T11:09:50;96601.06;;;23.10;68.29
32747;BME280;19118;50.860;13.662;2023-09-19T11:15:02;96607.63;;;23.89;65.65
32747;BME280;19118;50.860;13.662;2023-09-19T11:30:30;96595.88;;;23.99;55.91
32747;BME280;19118;50.860;13.662;2023-09-19T11:36:00;96596.28;;;23.49;53.92
32747;BME280;19118;50.860;13.662;2023-09-19T11:46:20;96613.69;;;24.00;57.09
32747;BME280;19118;50.860;13.662;2023-09-19T11:51:24;96604.47;;;24.20;56.69
32747;BME280;19118;50.860;13.662;2023-09-19T11:56:27;96591.06;;;23.58;53.42
32747;BME280;19118;50.860;13.662;2023-09-19T12:01:32;96605.81;;;24.03;57.05
32747;BME280;19118;50.860;13.662;2023-09-19T12:06:34;96600.72;;;24.02;54.94
32747;BME280;19118;50.860;13.662;2023-09-19T12:11:41;96596.50;;;24.47;52.99
32747;BME280;19118;50.860;13.662;2023-09-19T12:16:51;96598.31;;;24.52;51.87
32747;BME280;19118;50.860;13.662;2023-09-19T12:22:02;96605.78;;;24.41;53.12
32747;BME280;19118;50.860;13.662;2023-09-19T12:27:05;96591.88;;;23.59;51.19
32747;BME280;19118;50.860;13.662;2023-09-19T12:32:06;96607.13;;;24.06;54.09
32747;BME280;19118;50.860;13.662;2023-09-19T12:37:14;96591.78;;;24.39;51.97
32747;BME280;19118;50.860;13.662;2023-09-19T12:42:45;96595.72;;;24.28;52.51
32747;BME280;19118;50.860;13.662;2023-09-19T12:48:17;96586.44;;;24.15;51.50
32747;BME280;19118;50.860;13.662;2023-09-19T12:53:27;96582.69;;;24.49;50.25
32747;BME280;19118;50.860;13.662;2023-09-19T12:58:31;96576.59;;;24.24;49.52
32747;BME280;19118;50.860;13.662;2023-09-19T13:03:32;96579.38;;;24.00;50.16
32747;BME280;19118;50.860;13.662;2023-09-19T13:08:37;96585.72;;;24.09;50.33
32747;BME280;19118;50.860;13.662;2023-09-19T13:13:44;96583.41;;;23.65;50.66
32747;BME280;19118;50.860;13.662;2023-09-19T13:18:55;96583.75;;;23.77;50.99
32747;BME280;19118;50.860;13.662;2023-09-19T13:24:17;96577.00;;;23.80;49.43
32747;BME280;19118;50.860;13.662;2023-09-19T13:29:18;96575.72;;;24.10;49.76
32747;BME280;19118;50.860;13.662;2023-09-19T13:34:19;96584.78;;;24.00;48.96
32747;BME280;19118;50.860;13.662;2023-09-19T13:39:21;96575.00;;;23.86;48.90
32747;BME280;19118;50.860;13.662;2023-09-19T13:44:23;96578.88;;;23.98;49.80
32747;BME280;19118;50.860;13.662;2023-09-19T13:49:24;96587.84;;;24.13;50.52
32747;BME280;19118;50.860;13.662;2023-09-19T13:54:24;96594.84;;;24.14;50.69
32747;BME280;19118;50.860;13.662;2023-09-19T13:59:24;96593.97;;;23.99;51.42
32747;BME280;19118;50.860;13.662;2023-09-19T14:04:25;96593.06;;;24.23;51.94
32747;BME280;19118;50.860;13.662;2023-09-19T14:09:26;96586.03;;;23.89;51.73
32747;BME280;19118;50.860;13.662;2023-09-19T14:14:27;96588.66;;;23.94;52.15
32747;BME280;19118;50.860;13.662;2023-09-19T14:19:27;96575.94;;;24.14;50.82
32747;BME280;19118;50.860;13.662;2023-09-19T14:24:28;96575.22;;;23.89;49.75
32747;BME280;19118;50.860;13.662;2023-09-19T14:29:29;96581.28;;;23.81;49.72
32747;BME280;19118;50.860;13.662;2023-09-19T14:34:30;96571.34;;;23.58;49.07
32747;BME280;19118;50.860;13.662;2023-09-19T14:39:31;96578.50;;;23.86;50.36
32747;BME280;19118;50.860;13.662;2023-09-19T14:44:31;96562.78;;;23.50;48.74
32747;BME280;19118;50.860;13.662;2023-09-19T14:49:36;96572.31;;;23.43;50.91
32747;BME280;19118;50.860;13.662;2023-09-19T14:54:39;96568.91;;;23.37;50.28
32747;BME280;19118;50.860;13.662;2023-09-19T14:59:41;96580.75;;;23.17;51.74
32747;BME280;19118;50.860;13.662;2023-09-19T15:04:42;96575.03;;;23.00;52.43
32747;BME280;19118;50.860;13.662;2023-09-19T15:09:44;96576.75;;;22.91;53.49
32747;BME280;19118;50.860;13.662;2023-09-19T15:14:46;96571.75;;;22.74;53.74
32747;BME280;19118;50.860;13.662;2023-09-19T15:19:46;96582.03;;;22.72;56.55
32747;BME280;19118;50.860;13.662;2023-09-19T15:24:46;96566.31;;;22.79;56.22
32747;BME280;19118;50.860;13.662;2023-09-19T15:29:47;96570.50;;;22.37;56.23
32747;BME280;19118;50.860;13.662;2023-09-19T15:34:47;96577.13;;;22.21;57.86
32747;BME280;19118;50.860;13.662;2023-09-19T15:39:48;96569.69;;;22.03;58.07
32747;BME280;19118;50.860;13.662;2023-09-19T15:44:49;96573.94;;;22.14;56.82
32747;BME280;19118;50.860;13.662;2023-09-19T15:49:51;96563.47;;;22.07;53.00
32747;BME280;19118;50.860;13.662;2023-09-19T15:54:52;96563.34;;;21.84;52.02
32747;BME280;19118;50.860;13.662;2023-09-19T15:59:52;96572.38;;;21.64;52.75
32747;BME280;19118;50.860;13.662;2023-09-19T16:04:54;96566.34;;;21.28;53.95
32747;BME280;19118;50.860;13.662;2023-09-19T16:09:55;96580.72;;;20.98;55.75
32747;BME280;19118;50.860;13.662;2023-09-19T16:14:56;96584.22;;;20.88;55.84
32747;BME280;19118;50.860;13.662;2023-09-19T16:19:56;96589.09;;;20.81;56.90
32747;BME280;19118;50.860;13.662;2023-09-19T16:24:56;96589.16;;;20.45;58.15
32747;BME280;19118;50.860;13.662;2023-09-19T16:29:57;96595.56;;;20.24;59.14
32747;BME280;19118;50.860;13.662;2023-09-19T16:34:57;96595.03;;;20.22;60.05
32747;BME280;19118;50.860;13.662;2023-09-19T16:39:57;96601.22;;;19.97;60.80
32747;BME280;19118;50.860;13.662;2023-09-19T16:44:59;96597.66;;;19.66;62.50
32747;BME280;19118;50.860;13.662;2023-09-19T16:50:00;96605.66;;;19.51;64.27
32747;BME280;19118;50.860;13.662;2023-09-19T16:55:00;96609.28;;;19.24;66.89
32747;BME280;19118;50.860;13.662;2023-09-19T17:00:01;96616.94;;;19.00;69.25
32747;BME280;19118;50.860;13.662;2023-09-19T17:05:03;96619.47;;;18.70;71.68
32747;BME280;19118;50.860;13.662;2023-09-19T17:10:05;96619.50;;;18.43;76.41
32747;BME280;19118;50.860;13.662;2023-09-19T17:15:06;96625.63;;;18.06;81.37
32747;BME280;19118;50.860;13.662;2023-09-19T17:20:07;96636.53;;;17.72;88.34
32747;BME280;19118;50.860;13.662;2023-09-19T17:25:07;96635.63;;;17.40;95.26
32747;BME280;19118;50.860;13.662;2023-09-19T17:30:08;96639.75;;;17.09;100.00
32747;BME280;19118;50.860;13.662;2023-09-19T17:35:13;96642.84;;;16.79;100.00
32747;BME280;19118;50.860;13.662;2023-09-19T17:40:14;96641.84;;;16.51;100.00
32747;BME280;19118;50.860;13.662;2023-09-19T17:45:15;96646.78;;;16.26;100.00
32747;BME280;19118;50.860;13.662;2023-09-19T17:50:16;96651.78;;;16.06;100.00
32747;BME280;19118;50.860;13.662;2023-09-19T17:55:16;96650.59;;;15.85;100.00
32747;BME280;19118;50.860;13.662;2023-09-19T18:00:17;96654.38;;;15.72;100.00
32747;BME280;19118;50.860;13.662;2023-09-19T18:05:18;96659.31;;;15.52;100.00
32747;BME280;19118;50.860;13.662;2023-09-19T18:10:19;96667.31;;;15.40;100.00
32747;BME280;19118;50.860;13.662;2023-09-19T18:15:19;96665.97;;;15.26;100.00
32747;BME280;19118;50.860;13.662;2023-09-19T18:20:19;96680.25;;;15.20;100.00
32747;BME280;19118;50.860;13.662;2023-09-19T18:25:22;96690.66;;;15.21;100.00
32747;BME280;19118;50.860;13.662;2023-09-19T18:30:23;96684.41;;;15.15;100.00
32747;BME280;19118;50.860;13.662;2023-09-19T18:35:23;96693.31;;;15.21;100.00
32747;BME280;19118;50.860;13.662;2023-09-19T18:40:24;96695.63;;;15.29;100.00
32747;BME280;19118;50.860;13.662;2023-09-19T18:45:24;96699.44;;;15.33;100.00
32747;BME280;19118;50.860;13.662;2023-09-19T18:50:27;96707.66;;;15.32;100.00
32747;BME280;19118;50.860;13.662;2023-09-19T18:55:28;96708.97;;;15.29;100.00
32747;BME280;19118;50.860;13.662;2023-09-19T19:00:28;96695.44;;;15.07;100.00
32747;BME280;19118;50.860;13.662;2023-09-19T19:05:31;96705.50;;;14.94;100.00
32747;BME280;19118;50.860;13.662;2023-09-19T19:10:38;96707.00;;;15.01;100.00
32747;BME280;19118;50.860;13.662;2023-09-19T19:15:38;96716.50;;;15.21;100.00
32747;BME280;19118;50.860;13.662;2023-09-19T19:20:39;96719.09;;;15.56;100.00
32747;BME280;19118;50.860;13.662;2023-09-19T19:25:47;96723.28;;;15.52;100.00
32747;BME280;19118;50.860;13.662;2023-09-19T19:30:48;96721.75;;;15.67;100.00
32747;BME280;19118;50.860;13.662;2023-09-19T19:35:50;96724.38;;;15.79;100.00
32747;BME280;19118;50.860;13.662;2023-09-19T19:40:58;96722.59;;;15.85;100.00
32747;BME280;19118;50.860;13.662;2023-09-19T19:46:02;96718.31;;;15.84;100.00
32747;BME280;19118;50.860;13.662;2023-09-19T19:51:07;96718.09;;;15.85;100.00
32747;BME280;19118;50.860;13.662;2023-09-19T19:56:07;96722.28;;;15.81;100.00
32747;BME280;19118;50.860;13.662;2023-09-19T20:01:08;96723.59;;;15.95;100.00
32747;BME280;19118;50.860;13.662;2023-09-19T20:06:10;96721.06;;;16.00;100.00
32747;BME280;19118;50.860;13.662;2023-09-19T20:11:11;96717.22;;;15.96;100.00
32747;BME280;19118;50.860;13.662;2023-09-19T20:16:11;96710.53;;;15.94;100.00
32747;BME280;19118;50.860;13.662;2023-09-19T20:21:12;96708.56;;;15.89;100.00
32747;BME280;19118;50.860;13.662;2023-09-19T20:26:15;96708.09;;;15.92;100.00
32747;BME280;19118;50.860;13.662;2023-09-19T20:31:16;96716.00;;;15.87;100.00
32747;BME280;19118;50.860;13.662;2023-09-19T20:36:16;96710.00;;;15.80;100.00
32747;BME280;19118;50.860;13.662;2023-09-19T20:41:16;96712.75;;;15.85;100.00
32747;BME280;19118;50.860;13.662;2023-09-19T20:46:17;96711.63;;;15.81;100.00
32747;BME280;19118;50.860;13.662;2023-09-19T20:51:17;96711.16;;;15.72;100.00
32747;BME280;19118;50.860;13.662;2023-09-19T20:56:25;96714.66;;;15.73;100.00
32747;BME280;19118;50.860;13.662;2023-09-19T21:01:25;96707.41;;;15.85;100.00
32747;BME280;19118;50.860;13.662;2023-09-19T21:06:26;96705.16;;;15.77;100.00
32747;BME280;19118;50.860;13.662;2023-09-19T21:11:26;96712.28;;;15.88;100.00
32747;BME280;19118;50.860;13.662;2023-09-19T21:16:28;96710.56;;;15.82;100.00
32747;BME280;19118;50.860;13.662;2023-09-19T21:21:28;96701.81;;;15.70;100.00
32747;BME280;19118;50.860;13.662;2023-09-19T21:26:31;96706.25;;;15.64;100.00
32747;BME280;19118;50.860;13.662;2023-09-19T21:31:31;96695.97;;;15.73;100.00
32747;BME280;19118;50.860;13.662;2023-09-19T21:36:33;96690.09;;;15.71;100.00
32747;BME280;19118;50.860;13.662;2023-09-19T21:41:33;96691.84;;;15.65;100.00
32747;BME280;19118;50.860;13.662;2023-09-19T21:46:34;96688.94;;;15.67;100.00
32747;BME280;19118;50.860;13.662;2023-09-19T21:51:36;96698.03;;;15.83;100.00
32747;BME280;19118;50.860;13.662;2023-09-19T21:56:36;96688.34;;;15.77;100.00
32747;BME280;19118;50.860;13.662;2023-09-19T22:01:37;96695.63;;;15.81;100.00
32747;BME280;19118;50.860;13.662;2023-09-19T22:06:39;96697.81;;;15.84;100.00
32747;BME280;19118;50.860;13.662;2023-09-19T22:11:39;96693.31;;;15.73;100.00
32747;BME280;19118;50.860;13.662;2023-09-19T22:16:40;96686.03;;;15.68;100.00
32747;BME280;19118;50.860;13.662;2023-09-19T22:21:42;96686.28;;;15.67;100.00
32747;BME280;19118;50.860;13.662;2023-09-19T22:26:46;96684.56;;;15.61;100.00
32747;BME280;19118;50.860;13.662;2023-09-19T22:31:47;96674.69;;;15.61;100.00
32747;BME280;19118;50.860;13.662;2023-09-19T22:36:48;96673.91;;;15.49;100.00
32747;BME280;19118;50.860;13.662;2023-09-19T22:41:54;96670.91;;;15.46;100.00
32747;BME280;19118;50.860;13.662;2023-09-19T22:46:59;96674.00;;;15.54;100.00
32747;BME280;19118;50.860;13.662;2023-09-19T22:51:59;96673.22;;;15.54;100.00
32747;BME280;19118;50.860;13.662;2023-09-19T22:57:00;96676.94;;;15.53;100.00
32747;BME280;19118;50.860;13.662;2023-09-19T23:02:02;96671.84;;;15.39;100.00
32747;BME280;19118;50.860;13.662;2023-09-19T23:07:04;96686.09;;;15.45;100.00
32747;BME280;19118;50.860;13.662;2023-09-19T23:12:06;96680.63;;;15.40;100.00
32747;BME280;19118;50.860;13.662;2023-09-19T23:17:07;96687.38;;;15.42;100.00
32747;BME280;19118;50.860;13.662;2023-09-19T23:22:12;96686.97;;;15.62;100.00
32747;BME280;19118;50.860;13.662;2023-09-19T23:27:17;96689.97;;;15.78;100.00
32747;BME280;19118;50.860;13.662;2023-09-19T23:32:24;96696.22;;;15.71;100.00
32747;BME280;19118;50.860;13.662;2023-09-19T23:37:25;96693.91;;;15.75;100.00
32747;BME280;19118;50.860;13.662;2023-09-19T23:42:25;96693.72;;;15.65;100.00
32747;BME280;19118;50.860;13.662;2023-09-19T23:47:27;96694.41;;;15.60;100.00
32747;BME280;19118;50.860;13.662;2023-09-19T23:52:28;96699.63;;;15.67;100.00
32747;BME280;19118;50.860;13.662;2023-09-19T23:57:28;96702.28;;;15.67;100.00
